Time;durP1;ratioP1;P1;durP2;ratioP2;P2;SDS_P1;SDS_P2;PMS_P1;PMS_P2;Temp;Humidity;BMP_temperature;BMP_pressure;BME280_temperature;BME280_humidity;BME280_pressure;Samples;Min_cycle;Max_cycle;Signal;HPM_P1;HPM_P2
2023/05/02 00:00:49;;;;;;;;;;;;;;;7.56;85.59;100352.50;5050921;28;782;-56
2023/05/02 00:03:16;;;;;;;;;;;;;;;7.57;85.33;100348.59;5050881;28;885;-56
2023/05/02 00:05:43;;;;;;;;;;;;;;;7.40;87.13;100347.13;5050816;28;795;-56
2023/05/02 00:08:11;;;;;;;;;;;;;;;7.10;88.46;100350.53;5051860;28;1870;-56
2023/05/02 00:10:38;;;;;;;;;;;;;;;7.02;90.22;100353.53;5054883;28;926;-56
2023/05/02 00:13:04;;;;;;;;;;;;;;;7.32;87.82;100351.72;5054242;28;1218;-56
2023/05/02 00:15:31;;;;;;;;;;;;;;;7.31;87.36;100352.88;5054509;28;807;-56
2023/05/02 00:17:59;;;;;;;;;;;;;;;7.03;88.23;100355.94;5054610;28;858;-56
2023/05/02 00:20:25;;;;;;;;;;;;;;;6.91;90.65;100358.84;5054564;28;938;-57
2023/05/02 00:22:52;;;;;;;;;;;;;;;6.86;90.89;100361.88;5054400;28;807;-56
2023/05/02 00:25:18;;;;;;;;;;;;;;;6.70;91.78;100365.53;5054236;28;810;-56
2023/05/02 00:27:45;;;;;;;;;;;;;;;6.54;92.66;100365.59;5054186;28;1902;-56
2023/05/02 00:30:13;;;;;;;;;;;;;;;6.39;93.20;100365.66;5054345;28;811;-56
2023/05/02 00:32:39;;;;;;;;;;;;;;;6.26;94.35;100363.03;5054419;28;897;-56
2023/05/02 00:35:07;;;;;;;;;;;;;;;6.18;95.43;100366.00;5054059;28;855;-56
2023/05/02 00:37:34;;;;;;;;;;;;;;;6.26;95.66;100357.56;5054106;28;798;-56
2023/05/02 00:40:01;;;;;;;;;;;;;;;6.22;95.90;100364.91;5054018;28;811;-56
2023/05/02 00:42:31;;;;;;;;;;;;;;;6.10;96.36;100362.28;5053985;28;803;-56
2023/05/02 00:44:58;;;;;;;;;;;;;;;6.00;97.38;100362.88;5053849;28;846;-56
2023/05/02 00:47:25;;;;;;;;;;;;;;;5.99;97.61;100369.50;5053819;28;1882;-56
2023/05/02 00:49:52;;;;;;;;;;;;;;;5.97;97.89;100369.06;5053824;28;803;-56
2023/05/02 00:52:19;;;;;;;;;;;;;;;6.03;98.60;100373.13;5052513;28;1335;-56
2023/05/02 00:54:46;;;;;;;;;;;;;;;6.08;99.74;100373.66;5053622;28;855;-56
2023/05/02 00:57:13;;;;;;;;;;;;;;;6.11;99.08;100372.91;5053835;28;877;-57
2023/05/02 00:59:40;;;;;;;;;;;;;;;6.24;98.82;100367.31;5053642;28;854;-56
2023/05/02 01:02:13;;;;;;;;;;;;;;;6.52;96.35;100367.09;5053829;28;919;-57
2023/05/02 01:04:53;;;;;;;;;;;;;;;6.44;96.03;100366.16;5053899;28;834;-56
2023/05/02 01:07:26;;;;;;;;;;;;;;;6.37;96.25;100360.53;5053447;28;1881;-56
2023/05/02 01:10:12;;;;;;;;;;;;;;;6.56;94.79;100367.97;5054142;28;908;-56
2023/05/02 01:12:44;;;;;;;;;;;;;;;6.45;95.04;100365.00;5053443;28;825;-56
2023/05/02 01:15:16;;;;;;;;;;;;;;;6.25;96.15;100366.13;5013668;28;874;-56
2023/05/02 01:17:44;;;;;;;;;;;;;;;6.09;97.38;100360.72;5013716;28;810;-56
2023/05/02 01:20:14;;;;;;;;;;;;;;;5.96;98.39;100362.00;5012630;28;933;-56
2023/05/02 01:22:42;;;;;;;;;;;;;;;5.90;98.79;100361.44;5013561;28;854;-56
2023/05/02 01:25:27;;;;;;;;;;;;;;;5.77;99.39;100363.50;5013420;28;830;-56
2023/05/02 01:28:05;;;;;;;;;;;;;;;5.75;100.00;100363.03;5013310;28;1914;-56
2023/05/02 01:30:33;;;;;;;;;;;;;;;5.81;100.00;100363.59;5028936;28;1294;-56
2023/05/02 01:33:01;;;;;;;;;;;;;;;5.88;100.00;100361.00;5013543;28;845;-56
2023/05/02 01:35:29;;;;;;;;;;;;;;;6.00;100.00;100354.63;5013514;28;910;-57
2023/05/02 01:37:57;;;;;;;;;;;;;;;6.05;100.00;100366.13;5013238;28;852;-56
2023/05/02 01:40:25;;;;;;;;;;;;;;;6.10;100.00;100360.38;5013259;28;826;-56
2023/05/02 01:42:52;;;;;;;;;;;;;;;6.14;99.25;100357.69;5013173;28;881;-56
2023/05/02 01:45:21;;;;;;;;;;;;;;;6.11;98.91;100356.44;5013294;28;874;-56
2023/05/02 01:47:47;;;;;;;;;;;;;;;6.13;98.55;100356.88;5013005;28;1953;-56
2023/05/02 01:50:16;;;;;;;;;;;;;;;6.17;98.18;100362.47;5013056;28;874;-56
2023/05/02 01:52:45;;;;;;;;;;;;;;;6.18;98.08;100355.81;5013001;28;917;-56
2023/05/02 01:55:13;;;;;;;;;;;;;;;6.16;97.87;100360.06;5012834;28;831;-57
2023/05/02 01:57:42;;;;;;;;;;;;;;;6.10;97.90;100352.13;5012895;28;791;-56
2023/05/02 02:00:10;;;;;;;;;;;;;;;6.10;98.48;100362.28;5012867;28;802;-57
2023/05/02 02:02:38;;;;;;;;;;;;;;;6.12;99.27;100354.50;5012860;28;823;-56
2023/05/02 02:05:05;;;;;;;;;;;;;;;6.21;98.62;100354.28;5012746;28;811;-56
2023/05/02 02:07:31;;;;;;;;;;;;;;;6.30;97.65;100357.63;5012659;28;1957;-56
2023/05/02 02:09:59;;;;;;;;;;;;;;;6.34;97.00;100358.50;5012648;28;1034;-56
2023/05/02 02:12:31;;;;;;;;;;;;;;;6.31;96.10;100356.47;5027729;28;2436;-57
2023/05/02 02:15:05;;;;;;;;;;;;;;;6.19;96.01;100365.66;5049330;28;1252;-56
2023/05/02 02:17:36;;;;;;;;;;;;;;;6.09;96.37;100364.25;5052465;28;838;-56
2023/05/02 02:20:05;;;;;;;;;;;;;;;5.97;97.21;100360.81;5050796;28;2010;-56
2023/05/02 02:22:35;;;;;;;;;;;;;;;5.89;97.66;100363.38;5052077;28;826;-56
2023/05/02 02:25:03;;;;;;;;;;;;;;;5.82;97.80;100356.94;5052031;28;877;-56
2023/05/02 02:27:30;;;;;;;;;;;;;;;5.68;98.54;100354.66;5051878;28;1975;-56
2023/05/02 02:29:57;;;;;;;;;;;;;;;5.64;98.79;100364.75;5051884;28;831;-56
2023/05/02 02:32:24;;;;;;;;;;;;;;;5.68;99.32;100368.38;5051706;28;818;-57
2023/05/02 02:34:51;;;;;;;;;;;;;;;5.73;100.00;100363.41;5051852;28;806;-56
2023/05/02 02:37:18;;;;;;;;;;;;;;;5.75;100.00;100367.75;5051913;28;807;-56
2023/05/02 02:39:48;;;;;;;;;;;;;;;5.73;100.00;100368.88;5051737;28;802;-56
2023/05/02 02:42:28;;;;;;;;;;;;;;;5.83;100.00;100370.28;5051711;28;794;-56
2023/05/02 02:44:57;;;;;;;;;;;;;;;6.13;100.00;100365.13;5051737;28;838;-56
2023/05/02 02:47:27;;;;;;;;;;;;;;;6.36;97.66;100358.13;5051581;28;1883;-56
2023/05/02 02:49:56;;;;;;;;;;;;;;;6.29;96.75;100359.59;5051704;28;791;-56
2023/05/02 02:52:42;;;;;;;;;;;;;;;6.07;97.64;100365.75;5050231;28;2025;-56
2023/05/02 02:55:15;;;;;;;;;;;;;;;5.90;98.32;100370.44;5051615;28;869;-56
2023/05/02 02:57:48;;;;;;;;;;;;;;;5.77;99.30;100377.19;5052087;28;778;-56
2023/05/02 03:00:20;;;;;;;;;;;;;;;5.61;100.00;100371.75;5051552;28;889;-56
2023/05/02 03:02:47;;;;;;;;;;;;;;;5.48;100.00;100372.97;5051500;28;806;-56
2023/05/02 03:05:14;;;;;;;;;;;;;;;5.43;100.00;100378.72;5051471;28;822;-56
2023/05/02 03:07:41;;;;;;;;;;;;;;;5.44;100.00;100372.91;5051396;28;1969;-56
2023/05/02 03:10:07;;;;;;;;;;;;;;;5.53;100.00;100384.47;5051790;28;927;-56
2023/05/02 03:12:33;;;;;;;;;;;;;;;5.53;100.00;100379.00;5051401;28;897;-56
2023/05/02 03:15:23;;;;;;;;;;;;;;;5.47;100.00;100388.63;5051224;28;1200;-56
2023/05/02 03:17:50;;;;;;;;;;;;;;;5.39;100.00;100386.84;5049487;28;1293;-56
2023/05/02 03:20:20;;;;;;;;;;;;;;;5.32;100.00;100395.69;5051308;28;854;-56
2023/05/02 03:22:47;;;;;;;;;;;;;;;5.34;100.00;100397.31;5051273;28;854;-56
2023/05/02 03:25:14;;;;;;;;;;;;;;;5.34;100.00;100398.09;5051318;28;814;-56
2023/05/02 03:27:41;;;;;;;;;;;;;;;5.39;100.00;100402.50;5051340;28;1910;-56
2023/05/02 03:30:08;;;;;;;;;;;;;;;5.48;100.00;100406.69;5051287;28;858;-56
2023/05/02 03:32:35;;;;;;;;;;;;;;;5.57;100.00;100412.00;5051262;28;869;-56
2023/05/02 03:35:02;;;;;;;;;;;;;;;5.66;100.00;100409.06;5051175;28;803;-56
2023/05/02 03:37:28;;;;;;;;;;;;;;;5.74;100.00;100413.59;5051119;28;886;-56
2023/05/02 03:39:55;;;;;;;;;;;;;;;5.80;100.00;100411.34;5051133;28;865;-56
2023/05/02 03:42:22;;;;;;;;;;;;;;;5.86;100.00;100418.94;5051358;28;794;-56
2023/05/02 03:44:51;;;;;;;;;;;;;;;5.96;100.00;100420.41;5054970;28;831;-56
2023/05/02 03:47:18;;;;;;;;;;;;;;;6.08;100.00;100424.97;5054895;28;1890;-56
2023/05/02 03:49:45;;;;;;;;;;;;;;;6.24;100.00;100430.44;5055052;28;794;-56
2023/05/02 03:52:12;;;;;;;;;;;;;;;6.37;100.00;100437.41;5055005;28;842;-56
2023/05/02 03:54:39;;;;;;;;;;;;;;;6.47;100.00;100430.56;5054847;28;798;-56
2023/05/02 03:57:06;;;;;;;;;;;;;;;6.58;100.00;100439.81;5054841;28;803;-56
2023/05/02 03:59:34;;;;;;;;;;;;;;;6.66;100.00;100441.56;5054800;28;881;-56
2023/05/02 04:02:00;;;;;;;;;;;;;;;6.72;100.00;100439.31;5054776;28;819;-56
2023/05/02 04:04:27;;;;;;;;;;;;;;;6.80;100.00;100440.28;5054639;28;862;-56
2023/05/02 04:06:54;;;;;;;;;;;;;;;6.93;100.00;100433.47;5053338;28;1886;-55
2023/05/02 04:09:24;;;;;;;;;;;;;;;7.10;100.00;100438.50;5054682;28;914;-56
2023/05/02 04:11:51;;;;;;;;;;;;;;;7.25;100.00;100439.59;5054534;28;866;-55
2023/05/02 04:14:18;;;;;;;;;;;;;;;7.28;99.73;100441.63;5054177;28;1229;-55
2023/05/02 04:16:48;;;;;;;;;;;;;;;7.30;99.64;100444.00;5054517;28;810;-56
2023/05/02 04:19:17;;;;;;;;;;;;;;;7.40;100.00;100445.34;5054760;28;814;-56
2023/05/02 04:21:44;;;;;;;;;;;;;;;7.61;100.00;100444.94;5054260;28;814;-56
2023/05/02 04:24:12;;;;;;;;;;;;;;;7.78;99.07;100442.47;5054330;28;885;-56
2023/05/02 04:26:38;;;;;;;;;;;;;;;8.04;97.74;100449.19;5054219;28;1973;-56
2023/05/02 04:29:06;;;;;;;;;;;;;;;8.23;95.85;100445.53;5054347;28;873;-56
2023/05/02 04:31:32;;;;;;;;;;;;;;;8.28;94.86;100450.75;5054138;28;818;-56
2023/05/02 04:33:59;;;;;;;;;;;;;;;8.33;94.58;100457.91;5054168;28;787;-55
2023/05/02 04:36:27;;;;;;;;;;;;;;;8.47;94.60;100446.31;5054023;28;872;-56
2023/05/02 04:38:52;;;;;;;;;;;;;;;8.75;94.59;100452.22;5054098;28;834;-56
2023/05/02 04:41:20;;;;;;;;;;;;;;;8.86;92.86;100452.34;5054141;28;818;-56
2023/05/02 04:43:47;;;;;;;;;;;;;;;8.88;91.85;100457.50;5053889;28;1001;-56
2023/05/02 04:46:13;;;;;;;;;;;;;;;8.96;90.67;100457.19;5053891;28;1941;-56
2023/05/02 04:48:41;;;;;;;;;;;;;;;9.12;88.87;100454.22;5054109;28;819;-56
2023/05/02 04:51:08;;;;;;;;;;;;;;;9.33;87.54;100444.59;5053831;28;844;-56
2023/05/02 04:53:35;;;;;;;;;;;;;;;9.55;87.04;100451.91;5053709;28;806;-56
2023/05/02 04:56:01;;;;;;;;;;;;;;;9.73;85.45;100449.31;5053835;28;862;-56
2023/05/02 04:58:28;;;;;;;;;;;;;;;9.92;83.43;100456.59;5053721;28;802;-56
2023/05/02 05:00:54;;;;;;;;;;;;;;;10.09;81.69;100457.91;5052542;28;1235;-56
2023/05/02 05:03:21;;;;;;;;;;;;;;;10.34;81.72;100457.31;5053897;28;814;-56
2023/05/02 05:05:47;;;;;;;;;;;;;;;10.55;82.96;100459.41;5053714;28;866;-56
2023/05/02 05:08:13;;;;;;;;;;;;;;;10.76;83.71;100453.19;5053883;28;1890;-56
2023/05/02 05:10:41;;;;;;;;;;;;;;;11.00;84.27;100465.53;5054006;28;930;-56
2023/05/02 05:13:07;;;;;;;;;;;;;;;11.25;84.50;100468.41;5053159;28;1395;-56
2023/05/02 05:15:33;;;;;;;;;;;;;;;11.51;82.81;100458.19;5053631;28;878;-56
2023/05/02 05:18:01;;;;;;;;;;;;;;;11.80;82.28;100459.81;5053335;28;846;-56
2023/05/02 05:20:27;;;;;;;;;;;;;;;12.08;78.79;100469.34;5053179;28;818;-56
2023/05/02 05:22:54;;;;;;;;;;;;;;;12.38;76.90;100470.88;5053181;28;806;-56
2023/05/02 05:25:21;;;;;;;;;;;;;;;12.83;72.83;100468.38;5053223;28;846;-56
2023/05/02 05:27:46;;;;;;;;;;;;;;;13.20;72.07;100470.59;5053243;28;1914;-56
2023/05/02 05:30:13;;;;;;;;;;;;;;;13.38;70.33;100470.56;5053089;28;1223;-56
2023/05/02 05:32:40;;;;;;;;;;;;;;;13.63;67.90;100478.72;5053027;28;786;-56
2023/05/02 05:35:07;;;;;;;;;;;;;;;13.96;63.89;100478.50;5053017;28;822;-56
2023/05/02 05:37:36;;;;;;;;;;;;;;;13.84;63.80;100485.31;5052909;28;798;-56
2023/05/02 05:40:02;;;;;;;;;;;;;;;13.66;63.74;100491.00;5053068;28;893;-55
2023/05/02 05:42:29;;;;;;;;;;;;;;;13.63;63.36;100480.69;5052821;28;795;-55
2023/05/02 05:44:55;;;;;;;;;;;;;;;13.66;61.43;100488.22;5052803;28;890;-56
2023/05/02 05:47:22;;;;;;;;;;;;;;;13.77;62.03;100491.72;5052751;28;1984;-55
2023/05/02 05:49:53;;;;;;;;;;;;;;;13.86;59.85;100488.47;5052531;28;897;-55
2023/05/02 05:52:21;;;;;;;;;;;;;;;14.04;59.45;100488.34;5053525;28;795;-54
2023/05/02 05:54:47;;;;;;;;;;;;;;;14.27;57.69;100488.56;5051784;28;831;-55
2023/05/02 05:57:14;;;;;;;;;;;;;;;14.45;55.13;100495.94;5053269;28;747;-56
2023/05/02 05:59:41;;;;;;;;;;;;;;;14.65;54.86;100496.94;5052785;28;823;-56
2023/05/02 06:02:07;;;;;;;;;;;;;;;14.92;53.93;100498.25;5052636;28;811;-55
2023/05/02 06:04:34;;;;;;;;;;;;;;;15.13;51.37;100500.78;5052571;28;823;-56
2023/05/02 06:07:01;;;;;;;;;;;;;;;15.69;50.23;100503.97;5051750;28;1952;-55
2023/05/02 06:09:27;;;;;;;;;;;;;;;16.69;46.90;100497.97;5052468;28;1002;-55
2023/05/02 06:11:54;;;;;;;;;;;;;;;18.17;42.38;100505.56;5051002;28;1508;-55
2023/05/02 06:14:20;;;;;;;;;;;;;;;19.96;38.76;100493.31;5051936;28;1391;-55
2023/05/02 06:16:47;;;;;;;;;;;;;;;21.60;35.99;100480.25;5052199;28;819;-56
2023/05/02 06:19:14;;;;;;;;;;;;;;;22.98;33.94;100488.09;5052062;28;909;-56
2023/05/02 06:21:42;;;;;;;;;;;;;;;23.92;32.70;100490.19;5052044;28;835;-56
2023/05/02 06:24:09;;;;;;;;;;;;;;;24.71;31.12;100489.81;5052127;28;909;-55
2023/05/02 06:26:36;;;;;;;;;;;;;;;25.06;29.83;100489.94;5051917;28;1983;-56
2023/05/02 06:29:02;;;;;;;;;;;;;;;25.47;29.67;100490.16;5052038;28;842;-56
2023/05/02 06:31:29;;;;;;;;;;;;;;;25.72;28.61;100492.84;5051947;28;1027;-56
2023/05/02 06:33:55;;;;;;;;;;;;;;;25.63;28.19;100491.69;5051926;28;819;-56
2023/05/02 06:36:22;;;;;;;;;;;;;;;25.47;28.70;100492.97;5052139;28;846;-56
2023/05/02 06:38:48;;;;;;;;;;;;;;;25.25;28.28;100498.28;5051784;28;905;-56
2023/05/02 06:41:15;;;;;;;;;;;;;;;24.55;28.61;100488.22;5050542;28;844;-56
2023/05/02 06:43:41;;;;;;;;;;;;;;;24.25;28.49;100495.78;5051731;28;821;-56
2023/05/02 06:46:08;;;;;;;;;;;;;;;24.16;29.27;100484.56;5051681;28;1953;-56
2023/05/02 06:48:35;;;;;;;;;;;;;;;23.93;28.81;100488.94;5050319;28;854;-56
2023/05/02 06:51:03;;;;;;;;;;;;;;;23.15;30.19;100491.38;5051723;28;862;-57
2023/05/02 06:53:30;;;;;;;;;;;;;;;22.74;30.82;100493.59;5051607;28;956;-57
2023/05/02 06:55:57;;;;;;;;;;;;;;;22.38;30.41;100495.16;5051606;28;819;-57
2023/05/02 06:58:23;;;;;;;;;;;;;;;21.97;30.44;100492.38;5051523;28;984;-56
2023/05/02 07:00:50;;;;;;;;;;;;;;;21.62;30.54;100497.44;5051537;28;862;-56
2023/05/02 07:03:17;;;;;;;;;;;;;;;21.57;30.73;100495.22;5051503;28;917;-56
2023/05/02 07:05:43;;;;;;;;;;;;;;;21.89;30.62;100495.97;5051502;28;806;-57
2023/05/02 07:08:10;;;;;;;;;;;;;;;22.38;30.14;100497.97;5051393;28;1941;-56
2023/05/02 07:10:37;;;;;;;;;;;;;;;22.76;29.51;100497.50;5051786;28;903;-56
2023/05/02 07:13:04;;;;;;;;;;;;;;;23.47;29.08;100494.75;5051076;28;1348;-56
2023/05/02 07:15:31;;;;;;;;;;;;;;;24.37;27.54;100496.81;5051459;28;791;-56
2023/05/02 07:17:58;;;;;;;;;;;;;;;25.20;26.24;100498.94;5052100;28;842;-56
2023/05/02 07:20:25;;;;;;;;;;;;;;;25.92;25.44;100492.91;5055443;28;942;-56
2023/05/02 07:22:53;;;;;;;;;;;;;;;26.19;25.09;100491.75;5055477;28;866;-56
2023/05/02 07:25:20;;;;;;;;;;;;;;;26.71;25.11;100488.28;5055386;28;846;-57
2023/05/02 07:27:46;;;;;;;;;;;;;;;26.72;23.91;100494.75;5055304;28;1906;-56
2023/05/02 07:30:13;;;;;;;;;;;;;;;26.84;23.36;100502.06;5055622;28;843;-56
2023/05/02 07:32:40;;;;;;;;;;;;;;;27.04;23.15;100501.25;5055369;28;877;-56
2023/05/02 07:35:07;;;;;;;;;;;;;;;27.23;23.01;100498.88;5055381;28;835;-56
2023/05/02 07:37:35;;;;;;;;;;;;;;;27.06;22.97;100507.97;5055192;28;858;-56
2023/05/02 07:40:02;;;;;;;;;;;;;;;27.35;22.72;100514.72;5055163;28;925;-55
2023/05/02 07:42:29;;;;;;;;;;;;;;;27.56;22.88;100506.88;5055117;28;1010;-55
2023/05/02 07:44:56;;;;;;;;;;;;;;;27.65;23.90;100517.28;5053793;28;815;-55
2023/05/02 07:47:22;;;;;;;;;;;;;;;27.70;23.50;100511.66;5054919;28;1894;-56
2023/05/02 07:49:52;;;;;;;;;;;;;;;27.67;22.81;100512.66;5055007;28;814;-56
2023/05/02 07:52:19;;;;;;;;;;;;;;;27.58;23.54;100510.00;5054906;28;864;-54
2023/05/02 07:54:48;;;;;;;;;;;;;;;27.85;22.67;100511.53;5054918;28;823;-55
2023/05/02 07:57:15;;;;;;;;;;;;;;;27.59;21.60;100511.56;5054864;28;898;-56
2023/05/02 07:59:42;;;;;;;;;;;;;;;27.12;22.67;100510.09;5054794;28;882;-55
2023/05/02 08:02:11;;;;;;;;;;;;;;;27.22;23.75;100517.19;5054803;28;790;-56
2023/05/02 08:04:39;;;;;;;;;;;;;;;27.15;22.68;100506.25;5055162;28;779;-56
2023/05/02 08:07:06;;;;;;;;;;;;;;;26.85;23.03;100503.63;5054805;28;1948;-55
2023/05/02 08:09:33;;;;;;;;;;;;;;;26.65;24.21;100508.06;5055145;28;915;-55
2023/05/02 08:11:58;;;;;;;;;;;;;;;26.22;23.50;100510.59;5054886;28;815;-54
2023/05/02 08:14:25;;;;;;;;;;;;;;;26.19;24.20;100505.91;5054348;28;1314;-55
2023/05/02 08:16:51;;;;;;;;;;;;;;;26.27;24.16;100504.22;5054422;28;811;-54
2023/05/02 08:19:18;;;;;;;;;;;;;;;26.42;24.32;100498.50;5054393;28;901;-55
2023/05/02 08:21:45;;;;;;;;;;;;;;;26.45;24.11;100505.22;5054386;28;850;-55
2023/05/02 08:24:12;;;;;;;;;;;;;;;26.76;22.54;100506.66;5054304;28;865;-55
2023/05/02 08:26:39;;;;;;;;;;;;;;;26.37;23.88;100498.41;5054220;28;1965;-55
2023/05/02 08:29:06;;;;;;;;;;;;;;;26.32;23.29;100504.78;5053858;28;818;-54
2023/05/02 08:31:33;;;;;;;;;;;;;;;26.10;24.35;100503.22;5054420;28;818;-54
2023/05/02 08:34:00;;;;;;;;;;;;;;;26.24;24.27;100507.25;5054189;28;825;-55
2023/05/02 08:36:27;;;;;;;;;;;;;;;26.20;24.09;100501.81;5054124;28;822;-54
2023/05/02 08:38:54;;;;;;;;;;;;;;;25.73;23.63;100505.72;5054358;28;957;-54
2023/05/02 08:41:21;;;;;;;;;;;;;;;25.44;24.47;100510.19;5053986;28;942;-54
2023/05/02 08:43:48;;;;;;;;;;;;;;;25.55;24.22;100501.88;5054005;28;826;-55
2023/05/02 08:46:17;;;;;;;;;;;;;;;25.07;25.23;100499.22;5053778;28;1979;-54
2023/05/02 08:48:46;;;;;;;;;;;;;;;25.08;26.49;100494.34;5054236;28;799;-54
2023/05/02 08:51:17;;;;;;;;;;;;;;;25.27;25.91;100495.75;5053913;28;856;-54
2023/05/02 08:53:44;;;;;;;;;;;;;;;24.95;25.53;100500.28;5052538;28;758;-52
2023/05/02 08:56:11;;;;;;;;;;;;;;;25.00;26.14;100503.19;5053731;28;846;-54
2023/05/02 08:58:38;;;;;;;;;;;;;;;24.89;25.27;100505.06;5052420;28;1475;-53
2023/05/02 09:01:09;;;;;;;;;;;;;;;24.98;25.53;100493.66;5053959;28;818;-50
2023/05/02 09:03:37;;;;;;;;;;;;;;;24.80;25.88;100494.63;5053661;28;775;-50
2023/05/02 09:06:13;;;;;;;;;;;;;;;24.50;26.21;100493.78;5053527;28;1260;-55
2023/05/02 09:08:40;;;;;;;;;;;;;;;24.23;25.70;100490.63;5053482;28;1015;-56
2023/05/02 09:11:08;;;;;;;;;;;;;;;23.88;27.25;100483.97;5052268;28;961;-56
2023/05/02 09:13:42;;;;;;;;;;;;;;;24.01;27.15;100495.78;5053503;28;1409;-55
2023/05/02 09:16:13;;;;;;;;;;;;;;;24.17;26.15;100486.13;5053560;28;826;-56
2023/05/02 09:18:44;;;;;;;;;;;;;;;24.04;27.25;100489.19;5053308;28;925;-55
2023/05/02 09:21:15;;;;;;;;;;;;;;;24.11;27.98;100485.22;5053301;28;786;-56
2023/05/02 09:23:43;;;;;;;;;;;;;;;23.86;27.57;100487.25;5053241;28;850;-55
2023/05/02 09:26:21;;;;;;;;;;;;;;;23.82;29.37;100484.59;5051907;28;1377;-55
2023/05/02 09:28:51;;;;;;;;;;;;;;;23.55;30.00;100487.50;5053161;28;830;-56
2023/05/02 09:31:24;;;;;;;;;;;;;;;23.26;29.22;100480.41;5052985;28;916;-55
2023/05/02 09:33:52;;;;;;;;;;;;;;;23.29;28.36;100476.63;5053075;28;818;-55
2023/05/02 09:36:20;;;;;;;;;;;;;;;23.12;29.72;100464.16;5053019;28;810;-56
2023/05/02 09:38:48;;;;;;;;;;;;;;;22.98;28.14;100471.19;5053053;28;830;-55
2023/05/02 10:09:43;;;;;;;;;;;;;;;22.59;28.37;100480.13;5788918;22;2011;-64
2023/05/02 10:12:13;;;;;;;;;;;;;;;22.73;29.82;100466.69;5032434;28;924;-63
2023/05/02 10:14:45;;;;;;;;;;;;;;;22.95;28.56;100484.19;5032543;28;858;-65
2023/05/02 10:17:35;;;;;;;;;;;;;;;23.10;26.78;100477.94;5032346;28;802;-66
2023/05/02 10:20:06;;;;;;;;;;;;;;;23.08;27.69;100472.00;5025048;28;1074;-66
2023/05/02 10:22:36;;;;;;;;;;;;;;;22.89;28.15;100477.63;5032257;28;837;-63
2023/05/02 10:25:03;;;;;;;;;;;;;;;22.83;27.91;100479.53;5032276;28;787;-65
2023/05/02 10:27:30;;;;;;;;;;;;;;;22.98;29.44;100465.53;5032099;28;1926;-64
2023/05/02 10:29:59;;;;;;;;;;;;;;;22.86;27.35;100481.38;5031944;28;1089;-66
2023/05/02 10:32:31;;;;;;;;;;;;;;;22.85;27.90;100477.00;5032019;28;886;-65
2023/05/02 10:35:02;;;;;;;;;;;;;;;22.93;28.30;100481.06;5032559;28;853;-67
2023/05/02 10:37:35;;;;;;;;;;;;;;;23.06;28.46;100480.13;5031982;28;861;-66
2023/05/02 10:40:05;;;;;;;;;;;;;;;22.87;28.10;100482.94;5031794;28;912;-65
2023/05/02 10:42:36;;;;;;;;;;;;;;;23.03;28.59;100490.31;5031896;28;814;-66
2023/05/02 10:45:03;;;;;;;;;;;;;;;22.90;28.44;100478.41;5031852;28;814;-64
2023/05/02 10:47:31;;;;;;;;;;;;;;;22.90;27.56;100476.38;5031992;28;1910;-66
2023/05/02 10:50:01;;;;;;;;;;;;;;;23.13;28.71;100477.78;5031765;28;909;-66
2023/05/02 10:52:37;;;;;;;;;;;;;;;23.23;27.59;100484.94;5032127;28;791;-65
2023/05/02 10:55:22;;;;;;;;;;;;;;;23.47;26.64;100483.47;5031678;28;902;-67
2023/05/02 10:57:58;;;;;;;;;;;;;;;23.50;26.52;100483.31;5031737;28;823;-67
2023/05/02 11:00:25;;;;;;;;;;;;;;;23.38;27.01;100476.59;5031622;28;814;-66
2023/05/02 11:02:53;;;;;;;;;;;;;;;23.58;26.70;100478.88;5031911;28;851;-65
2023/05/02 11:05:23;;;;;;;;;;;;;;;23.59;25.79;100482.47;5031647;28;806;-65
2023/05/02 11:07:49;;;;;;;;;;;;;;;23.68;25.84;100478.84;5031446;28;1962;-65
2023/05/02 11:10:19;;;;;;;;;;;;;;;23.58;24.89;100481.69;5031315;28;1223;-65
2023/05/02 11:12:50;;;;;;;;;;;;;;;23.73;25.90;100481.78;5032324;28;795;-66
2023/05/02 11:15:32;;;;;;;;;;;;;;;24.12;24.81;100472.66;5031392;28;906;-65
2023/05/02 11:18:00;;;;;;;;;;;;;;;24.46;25.35;100482.63;5031753;28;814;-66
2023/05/02 11:20:29;;;;;;;;;;;;;;;24.48;24.93;100480.09;5031381;28;956;-67
2023/05/02 11:22:58;;;;;;;;;;;;;;;24.74;25.14;100477.53;5031881;28;853;-65
2023/05/02 11:25:45;;;;;;;;;;;;;;;24.81;24.56;100477.16;5031510;28;877;-65
2023/05/02 11:28:30;;;;;;;;;;;;;;;25.10;26.01;100477.69;5013471;28;1898;-65
2023/05/02 11:30:56;;;;;;;;;;;;;;;25.39;24.38;100474.88;5031519;28;827;-66
2023/05/02 11:33:23;;;;;;;;;;;;;;;25.25;24.22;100479.25;5031244;28;811;-64
2023/05/02 11:35:50;;;;;;;;;;;;;;;25.27;24.58;100476.72;5031283;28;799;-66
2023/05/02 11:38:18;;;;;;;;;;;;;;;25.29;24.20;100470.56;5031126;28;795;-65
2023/05/02 11:40:52;;;;;;;;;;;;;;;25.41;24.39;100475.16;5031230;28;811;-65
2023/05/02 11:43:23;;;;;;;;;;;;;;;25.49;23.55;100486.06;5031231;28;838;-65
2023/05/02 11:45:49;;;;;;;;;;;;;;;25.65;24.70;100465.75;5031226;28;827;-65
2023/05/02 11:48:17;;;;;;;;;;;;;;;25.54;24.69;100472.00;5031336;28;1887;-67
2023/05/02 11:50:57;;;;;;;;;;;;;;;25.65;23.70;100469.34;5031431;28;795;-65
2023/05/02 11:53:25;;;;;;;;;;;;;;;25.86;24.72;100458.03;5031420;28;878;-64
2023/05/02 11:55:58;;;;;;;;;;;;;;;26.19;23.90;100466.25;5031057;28;803;-65
2023/05/02 11:58:31;;;;;;;;;;;;;;;26.35;23.65;100464.13;5031123;28;819;-65
2023/05/02 12:00:59;;;;;;;;;;;;;;;25.87;23.54;100463.22;5031049;28;862;-65
2023/05/02 12:03:29;;;;;;;;;;;;;;;25.89;23.30;100459.16;5031114;28;837;-64
2023/05/02 12:05:57;;;;;;;;;;;;;;;26.16;22.96;100452.28;5035062;28;889;-65
2023/05/02 12:08:27;;;;;;;;;;;;;;;26.12;23.23;100458.19;5034570;28;1886;-64
2023/05/02 12:10:54;;;;;;;;;;;;;;;26.60;23.10;100457.75;5034709;28;1317;-65
2023/05/02 12:13:23;;;;;;;;;;;;;;;26.72;22.28;100455.03;5034843;28;814;-66
2023/05/02 12:15:52;;;;;;;;;;;;;;;26.61;23.17;100456.47;5034636;28;854;-66
2023/05/02 12:18:20;;;;;;;;;;;;;;;26.72;23.11;100444.47;5034484;28;921;-66
2023/05/02 12:20:47;;;;;;;;;;;;;;;26.27;22.26;100447.56;5034490;28;854;-64
2023/05/02 12:23:14;;;;;;;;;;;;;;;26.19;22.70;100443.59;5034463;28;857;-64
2023/05/02 12:25:41;;;;;;;;;;;;;;;26.41;23.46;100445.13;5034444;28;802;-64
2023/05/02 12:28:08;;;;;;;;;;;;;;;26.64;22.32;100434.84;5034336;28;1975;-66
2023/05/02 12:30:38;;;;;;;;;;;;;;;26.54;22.51;100434.19;5034348;28;861;-66
2023/05/02 12:33:06;;;;;;;;;;;;;;;27.48;22.79;100429.94;5034320;28;817;-66
2023/05/02 12:35:34;;;;;;;;;;;;;;;27.86;22.05;100416.50;5034341;28;890;-64
2023/05/02 12:38:10;;;;;;;;;;;;;;;27.29;21.56;100421.03;5034137;28;826;-65
2023/05/02 12:40:37;;;;;;;;;;;;;;;27.18;22.40;100411.63;5034407;28;865;-67
2023/05/02 12:43:06;;;;;;;;;;;;;;;26.58;22.27;100419.84;5016392;28;1823;-66
2023/05/02 12:45:34;;;;;;;;;;;;;;;26.73;22.87;100409.16;5034400;28;818;-66
2023/05/02 12:48:01;;;;;;;;;;;;;;;27.36;22.95;100411.28;5034006;28;1951;-66
2023/05/02 12:50:38;;;;;;;;;;;;;;;27.36;22.61;100407.66;5034043;28;806;-66
2023/05/02 12:53:06;;;;;;;;;;;;;;;27.23;22.87;100397.50;5033821;28;874;-65
2023/05/02 12:55:33;;;;;;;;;;;;;;;26.94;22.73;100395.69;5034032;28;901;-63
2023/05/02 12:58:01;;;;;;;;;;;;;;;26.47;22.59;100407.06;5033822;28;802;-65
2023/05/02 13:00:29;;;;;;;;;;;;;;;26.48;23.79;100400.13;5034066;28;881;-64
2023/05/02 13:02:56;;;;;;;;;;;;;;;26.51;22.68;100406.09;5033750;28;814;-64
2023/05/02 13:05:23;;;;;;;;;;;;;;;26.43;23.26;100405.75;5033598;28;842;-64
2023/05/02 13:07:49;;;;;;;;;;;;;;;25.77;23.24;100399.50;5033486;28;1878;-64
2023/05/02 13:10:17;;;;;;;;;;;;;;;25.51;23.34;100393.75;5033336;28;1368;-64
2023/05/02 13:12:44;;;;;;;;;;;;;;;25.82;24.01;100393.16;5033754;28;830;-64
2023/05/02 13:15:11;;;;;;;;;;;;;;;25.79;23.82;100391.28;5032991;28;885;-65
2023/05/02 13:17:37;;;;;;;;;;;;;;;25.76;23.70;100397.19;5033067;28;838;-66
2023/05/02 13:20:04;;;;;;;;;;;;;;;26.20;23.95;100396.19;5015636;28;1308;-64
2023/05/02 13:22:31;;;;;;;;;;;;;;;26.16;23.54;100396.44;5033490;28;803;-66
2023/05/02 13:24:56;;;;;;;;;;;;;;;26.51;23.53;100397.59;5033268;28;1004;-63
2023/05/02 13:27:23;;;;;;;;;;;;;;;25.68;23.00;100397.59;5033222;28;1977;-64
2023/05/02 13:29:50;;;;;;;;;;;;;;;25.23;23.97;100393.31;5033266;28;830;-64
2023/05/02 13:32:17;;;;;;;;;;;;;;;24.91;24.43;100407.19;5033224;28;925;-64